Grand Canyon National Park, AZ

9:41 AM MST on October 30, 2014 (GMT -0700)
KAZGRAND3 | Change Station
CLOSE
Current Station
Personal Weather Station
Location: Grand Canyon, AZ
Elevation: 6991 ft
Nearby Weather Stations

Elev 6991 ft 36.05 °N, 112.12 °W | Updated 12 seconds ago

Clear
Clear
62.0 °F
Feels Like 62.0 °F
N
1.0
Wind Variable Wind from East
Gusts 3.0 mph

Today
High -- | Low -- °F
--% Chance of Precip.
Yesterday
High -- | Low -- °F
Precip. -- in
6:49 AM 5:34 PM
Waxing Crescent, 45% visible
Pressure 30.24 in
Visibility 10.0 miles
Clouds Clear
Dew Point 18 °F
Humidity 18%
Rainfall 0.00 in
Snow Depth Not available.
UV 2 out of 12
Pollen 3.60 out of 12
Air Quality Not available.
Flu Activity Not available.
METAR KGCN 301554Z 08009KT 10SM CLR 16/M07 A3036 RMK AO2 SLP238 T01561067

More Conditions Fewer Conditions

Pressure 30.24 in
Visibility 10.0 miles
Clouds Clear
Dew Point 18 °F
Humidity 18%
Rainfall 0.00 in
Snow Depth Not available.
UV 2 out of 12
Pollen 3.60 out of 12
Air Quality Not available.
Flu Activity Not available.
METAR KGCN 301554Z 08009KT 10SM CLR 16/M07 A3036 RMK AO2 SLP238 T01561067

More Conditions Fewer Conditions

10-Day Weather Forecast

Almanac

Astronomy

Oct. 30, 2014 Rise Set
Actual Time
Civil Twilight
Nautical Twilight
Astronomical Twilight
Moon
Length of Visible Light
Length of Day
Tomorrow will be .
, % of the Moon is Illuminated

Today's Extremes

State Highs State Lows

Community

WunderPhotos

Upload Photos

1,766,402 photos uploaded!

WunderBlogs® & News

Nearby

Air Quality

  Air Quality AQ Index Pollutant
Not available.

Snow Depth

Station Depth Elevation

Earthquake Activity

City Distance Mag. Time & Date
Minimum magnitude displayed is 2.5.

Coastal Water Temperatures

Place Temperature

Nearby Weather Stations